Latest Coastal Weather Observations for Wyndham Airport

IDD60701

Issued at 2:31 am CST Friday 20 September 2019 (issued every 10 minutes, with the page automatically refreshed every 10 minutes)

About coastal observations | Map of coastal stations | Coastal observations for NT | Marine services | Other Formats
Station Details ID: 001006 Name: WYNDHAM AERO Lat: -15.51 Lon: 128.15 Height: 3.8 m
Data from the previous 72 hours. | See also: Recent months at Wyndham Airport
Date/Time
CST
Wind Sea
Height
m
Swell Vis
km
Cloud Weather Temp
°C
Press
hPa
Rain since
9am
mm
Dir  Spd
kts
Gust
kts
Height
m
Period
s
Dir
20/02:30am WNW 8 10 - - - - - - - 26.4 1011.7 0.0
20/02:00am WNW 7 8 - - - - - - - 25.2 1011.8 0.0
20/01:30am WNW 6 8 - - - - - - - 24.6 1012.2 0.0
20/01:00am W 3 4 - - - - - - - 24.5 1012.3 0.0
20/12:30am W 4 5 - - - - - - - 24.7 1012.5 0.0
20/12:00am W 4 5 - - - - - - - 26.2 1012.5 0.0
 
Date/Time
CST
Wind Sea
Height
m
Swell Vis
km
Cloud Weather Temp
°C
Press
hPa
Rain since
9am
mm
Dir  Spd
kts
Gust
kts
Height
m
Period
s
Dir
19/11:30pm W 3 6 - - - - - - - 25.7 1012.6 0.0
19/11:00pm SW 4 7 - - - - - - - 26.9 1012.5 0.0
19/10:30pm NW 6 7 - - - - - - - 27.3 1012.3 0.0
19/10:00pm E 4 7 - - - - - - - 27.9 1012.1 0.0
19/09:30pm SW 2 4 - - - - - - - 28.5 1012.0 0.0
19/09:00pm NNW 7 10 - - - - - - - 29.9 1012.0 0.0
19/08:30pm NNW 6 8 - - - - - - - 30.5 1012.1 0.0
19/08:00pm NW 4 6 - - - - - - - 31.3 1012.0 0.0
19/07:30pm NNW 4 5 - - - - - - - 31.1 1011.7 0.0
19/07:00pm N 8 11 - - - - - - - 32.0 1011.4 0.0
19/06:30pm NNE 11 15 - - - - - - - 32.7 1011.1 0.0
19/06:00pm NNE 11 15 - - - - - - - 33.6 1010.8 0.0
19/05:30pm NNE 10 14 - - - - - - - 34.4 1010.7 0.0
19/05:00pm NNE 9 14 - - - - - - - 34.5 1010.6 0.0
19/04:30pm N 9 14 - - - - - - - 34.9 1010.7 0.0
19/04:00pm N 11 17 - - - - - - - 35.1 1010.9 0.0
19/03:30pm N 11 16 - - - - - - - 35.5 1011.1 0.0
19/03:00pm N 12 18 - - - - - - - 35.0 1011.3 0.0
19/02:30pm NNE 13 18 - - - - - - - 35.4 1011.7 0.0
19/02:00pm N 12 17 - - - - - - - 34.6 1012.4 0.0
19/01:30pm N 10 17 - - - - - - - 34.9 1012.8 0.0
19/01:00pm N 10 16 - - - - - - - 34.5 1013.3 0.0
19/12:30pm NE 8 13 - - - - - - - 33.3 1014.1 0.0
19/12:00pm N 10 14 - - - - - - - 33.1 1014.6 0.0
19/11:30am NNE 8 15 - - - - - - - 32.7 1015.0 0.0
19/11:00am NNE 7 11 - - - - - - - 32.0 1015.4 0.0
19/10:30am NE 7 12 - - - - - - - 31.1 1015.6 0.0
19/10:00am ENE 8 13 - - - - - - - 29.8 1015.9 0.0
19/09:30am E 8 11 - - - - - - - 27.8 1016.0 0.0
19/09:00am ESE 11 14 - - - - - - - 26.8 1015.7 0.0
19/08:30am ESE 12 16 - - - - - - - 25.2 1015.5 0.0
19/08:00am ESE 12 18 - - - - - - - 23.6 1015.1 0.0
19/07:30am ESE 9 12 - - - - - - - 22.1 1014.8 0.0
19/07:00am E 10 14 - - - - - - - 20.7 1014.6 0.0
19/06:30am ESE 9 11 - - - - - - - 20.7 1014.1 0.0
19/06:00am WNW 3 5 - - - - - - - 22.1 1013.7 0.0
19/05:30am WNW 1 3 - - - - - - - 23.2 1013.3 0.0
19/05:00am WNW 5 7 - - - - - - - 23.8 1013.1 0.0
19/04:30am W 7 9 - - - - - - - 24.2 1013.1 0.0
19/04:00am NW 6 7 - - - - - - - 22.6 1012.9 0.0
19/03:30am NW 3 4 - - - - - - - 23.7 1013.0 0.0
19/03:00am NW 4 5 - - - - - - - 22.5 1013.3 0.0
19/02:30am W 7 10 - - - - - - - 22.0 1013.2 0.0
19/02:00am E 3 4 - - - - - - - 23.1 1013.2 0.0
19/01:30am E 2 3 - - - - - - - 24.0 1013.3 0.0
19/01:00am E 2 5 - - - - - - - 22.2 1013.7 0.0
19/12:30am E 1 4 - - - - - - - 23.0 1013.9 0.0
19/12:00am E 3 3 - - - - - - - 23.4 1014.2 0.0
 
Date/Time
CST
Wind Sea
Height
m
Swell Vis
km
Cloud Weather Temp
°C
Press
hPa
Rain since
9am
mm
Dir  Spd
kts
Gust
kts
Height
m
Period
s
Dir
18/11:30pm E 5 6 - - - - - - - 24.3 1014.4 0.0
18/11:00pm SSE 5 9 - - - - - - - 25.6 1014.4 0.0
18/10:30pm SSW 6 8 - - - - - - - 25.9 1014.5 0.0
18/10:00pm SSW 5 7 - - - - - - - 26.6 1014.4 0.0
18/09:30pm NNW 3 4 - - - - - - - 28.4 1014.2 0.0
18/09:00pm NNW 6 7 - - - - - - - 29.1 1013.8 0.0
18/08:30pm NNW 5 7 - - - - - - - 29.5 1013.7 0.0
18/08:00pm NNW 5 6 - - - - - - - 30.1 1013.5 0.0
18/07:30pm N 6 9 - - - - - - - 30.9 1013.3 0.0
18/07:00pm N 9 12 - - - - - - - 31.7 1013.0 0.0
18/06:30pm NNW 11 14 - - - - - - - 32.5 1012.8 0.0
18/06:00pm NNW 13 17 - - - - - - - 33.2 1012.7 0.0
18/05:30pm NNW 13 17 - - - - - - - 33.9 1012.4 0.0
18/05:00pm NNW 11 17 - - - - - - - 34.6 1012.4 0.0
18/04:30pm N 11 17 - - - - - - - 34.6 1012.4 0.0
18/04:00pm N 10 15 - - - - - - - 35.2 1012.5 0.0
18/03:30pm N 9 15 - - - - - - - 34.8 1012.8 0.0
18/03:00pm NNE 9 14 - - - - - - - 35.2 1013.2 0.0
18/02:30pm N 13 21 - - - - - - - 34.8 1013.6 0.0
18/02:00pm NNW 13 19 - - - - - - - 34.7 1014.1 0.0
18/01:30pm N 11 16 - - - - - - - 33.5 1014.8 0.0
18/01:00pm N 10 17 - - - - - - - 33.7 1015.2 0.0
18/12:30pm NNE 12 17 - - - - - - - 33.7 1015.8 0.0
18/12:00pm NNE 12 19 - - - - - - - 32.6 1016.5 0.0
18/11:30am NE 8 13 - - - - - - - 32.3 1017.0 0.0
18/11:00am ENE 8 14 - - - - - - - 31.0 1017.3 0.0
18/10:30am E 7 11 - - - - - - - 29.5 1017.5 0.0
18/10:00am E 10 13 - - - - - - - 28.2 1017.6 0.0
18/09:30am ESE 12 13 - - - - - - - 27.1 1017.6 0.0
18/09:00am ESE 8 11 - - - - - - - 25.8 1017.3 0.0
18/08:30am ESE 10 12 - - - - - - - 24.2 1017.0 0.0
18/08:00am ESE 10 13 - - - - - - - 23.6 1016.8 0.0
18/07:30am ESE 10 11 - - - - - - - 22.3 1016.5 0.0
18/07:00am E 6 8 - - - - - - - 20.8 1016.0 0.0
18/06:30am ESE 10 11 - - - - - - - 21.6 1015.5 0.0
18/06:00am SSW 3 6 - - - - - - - 20.4 1015.2 0.0
18/05:30am SSW 3 4 - - - - - - - 23.3 1014.8 0.0
18/05:00am SSW 7 9 - - - - - - - 23.5 1014.4 0.0
18/04:30am SSW 3 5 - - - - - - - 24.5 1014.2 0.0
18/04:00am SW 5 7 - - - - - - - 22.5 1014.2 0.0
18/03:30am NNW 4 6 - - - - - - - 22.6 1014.0 0.0
18/03:00am NNW 5 6 - - - - - - - 21.4 1014.0 0.0
18/02:30am NNW 1 3 - - - - - - - 22.4 1014.1 0.0
18/02:00am NNW 4 6 - - - - - - - 22.4 1014.4 0.0
18/01:30am ENE 5 6 - - - - - - - 22.7 1014.5 0.0
18/01:00am E 3 4 - - - - - - - 22.2 1014.9 0.0
18/12:30am E 2 6 - - - - - - - 24.3 1015.0 0.0
18/12:00am E 6 8 - - - - - - - 24.7 1015.2 0.0
 
Date/Time
CST
Wind Sea
Height
m
Swell Vis
km
Cloud Weather Temp
°C
Press
hPa
Rain since
9am
mm
Dir  Spd
kts
Gust
kts
Height
m
Period
s
Dir
17/11:30pm ESE 7 8 - - - - - - - 24.7 1015.2 0.0
17/11:00pm ESE 6 7 - - - - - - - 24.5 1015.1 0.0
17/10:30pm SSW 3 5 - - - - - - - 26.0 1015.3 0.0
17/10:00pm SSW 6 8 - - - - - - - 27.6 1015.1 0.0
17/09:30pm SW 5 5 - - - - - - - 27.7 1014.9 0.0
17/09:00pm NNW 5 7 - - - - - - - 28.4 1014.5 0.0
17/08:30pm NW 7 8 - - - - - - - 29.0 1014.0 0.0
17/08:00pm NNW 9 11 - - - - - - - 30.3 1013.7 0.0
17/07:30pm N 9 12 - - - - - - - 30.7 1013.3 0.0
17/07:00pm N 10 14 - - - - - - - 31.0 1012.9 0.0
17/06:30pm N 13 18 - - - - - - - 31.7 1012.5 0.0
17/06:00pm NNW 10 14 - - - - - - - 32.9 1012.4 0.0
17/05:30pm NW 13 18 - - - - - - - 33.9 1012.1 0.0
17/05:00pm NW 14 19 - - - - - - - 34.2 1011.9 0.0
17/04:30pm NW 13 19 - - - - - - - 34.6 1011.9 0.0
17/04:00pm NNW 12 16 - - - - - - - 35.2 1011.9 0.0
17/03:30pm N 9 16 - - - - - - - 34.9 1012.3 0.0
17/03:00pm N 10 16 - - - - - - - 34.4 1012.6 0.0
17/02:30pm NNE 7 14 - - - - - - - 35.6 1013.0 0.0
17/02:00pm NNW 9 13 - - - - - - - 35.1 1013.4 0.0
17/01:30pm N 11 19 - - - - - - - 35.3 1013.9 0.0
17/01:00pm NE 5 13 - - - - - - - 34.8 1014.6 0.0
17/12:30pm NNE 6 11 - - - - - - - 33.8 1015.2 0.0
17/12:00pm NNE 7 14 - - - - - - - 33.3 1015.7 0.0
17/11:30am ESE 4 7 - - - - - - - 31.5 1016.1 0.0
17/11:00am SSE 3 6 - - - - - - - 30.9 1016.5 0.0
17/10:30am SW 3 6 - - - - - - - 29.9 1016.7 0.0
17/10:00am SE 4 6 - - - - - - - 28.6 1016.8 0.0
17/09:30am ESE 7 10 - - - - - - - 27.7 1016.9 0.0
17/09:00am ESE 11 15 - - - - - - - 26.1 1016.9 0.0
17/08:30am E 9 11 - - - - - - - 24.9 1016.5 0.0
17/08:00am ESE 7 11 - - - - - - - 23.1 1016.0 0.0
17/07:30am ENE 5 6 - - - - - - - 21.7 1015.5 0.0
17/07:00am NE 6 7 - - - - - - - 21.7 1015.1 0.0
17/06:30am SE 6 6 - - - - - - - 21.9 1014.4 0.0
17/06:00am ESE 4 5 - - - - - - - 22.8 1014.1 0.0
17/05:30am SSW 3 4 - - - - - - - 22.6 1013.6 0.0
17/05:00am SSW 2 4 - - - - - - - 21.9 1013.5 0.0
17/04:30am SSW 6 8 - - - - - - - 21.7 1013.1 0.0

Other formats

Comma delimited format used in spreadsheet applications
http://www.bom.gov.au/fwo/IDD60701/IDD60701.95214.axf

JavaScript Object Notation format (JSON) in row-major order
http://www.bom.gov.au/fwo/IDD60701/IDD60701.95214.json

Data quality

Most of these data are generated automatically and are frequently updated. Quality checks on data are not normally performed. It is possible for incorrect values to appear. Refer to information at About Latest Weather Observations and please check the disclaimer before using these data.